Time;durP1;ratioP1;P1;durP2;ratioP2;P2;SDS_P1;SDS_P2;PMS_P1;PMS_P2;Temp;Humidity;BMP_temperature;BMP_pressure;BME280_temperature;BME280_humidity;BME280_pressure;Samples;Min_cycle;Max_cycle;Signal;HPM_P1;HPM_P2
2023/09/17 00:00:47;;;;;;;22.87;20.57;;;20.70;99.90;;;;;;5035879;28;20265;-85
2023/09/17 00:03:12;;;;;;;25.37;22.67;;;20.70;99.90;;;;;;5001926;28;20659;-82
2023/09/17 00:05:38;;;;;;;22.73;20.47;;;20.60;99.90;;;;;;5036303;28;20261;-83
2023/09/17 00:08:04;;;;;;;24.00;20.83;;;20.50;99.90;;;;;;5034267;28;20198;-83
2023/09/17 00:10:31;;;;;;;24.37;21.87;;;20.60;99.90;;;;;;5034220;28;20249;-83
2023/09/17 00:12:57;;;;;;;24.93;22.33;;;20.60;99.90;;;;;;5034125;28;20288;-82
2023/09/17 00:15:25;;;;;;;23.77;21.37;;;20.60;99.90;;;;;;5035741;28;20184;-83
2023/09/17 00:17:52;;;;;;;20.90;18.87;;;20.60;99.90;;;;;;5034099;28;20243;-82
2023/09/17 00:20:18;;;;;;;21.10;19.10;;;20.60;99.90;;;;;;5034530;28;20175;-83
2023/09/17 00:22:44;;;;;;;20.33;18.27;;;20.60;99.90;;;;;;5035259;28;20159;-83
2023/09/17 00:25:09;;;;;;;20.77;18.73;;;20.60;99.90;;;;;;5035199;28;20190;-82
2023/09/17 00:27:35;;;;;;;17.27;15.47;;;20.70;99.90;;;;;;5043607;28;20158;-82
2023/09/17 00:30:01;;;;;;;15.27;13.67;;;20.70;99.90;;;;;;5056440;28;20185;-83
2023/09/17 00:32:27;;;;;;;15.80;14.27;;;20.80;99.90;;;;;;5039014;28;20174;-83
2023/09/17 00:34:53;;;;;;;16.07;14.33;;;20.80;99.90;;;;;;5038825;28;20246;-82
2023/09/17 00:37:22;;;;;;;14.73;13.17;;;20.80;99.90;;;;;;5034706;28;20178;-82
2023/09/17 00:39:49;;;;;;;15.10;13.50;;;20.60;99.90;;;;;;5034343;28;20197;-83
2023/09/17 00:42:15;;;;;;;15.20;13.57;;;20.60;99.90;;;;;;5035395;28;20213;-81
2023/09/17 00:44:41;;;;;;;14.30;12.80;;;20.60;99.90;;;;;;5034972;28;20178;-83
2023/09/17 00:47:07;;;;;;;15.80;13.13;;;20.50;99.90;;;;;;5045584;28;20205;-83
2023/09/17 00:49:34;;;;;;;11.80;10.60;;;20.40;99.90;;;;;;5049294;28;20857;-83
2023/09/17 00:52:01;;;;;;;13.87;12.30;;;20.30;99.90;;;;;;5054340;28;20156;-83
2023/09/17 00:54:28;;;;;;;14.47;13.07;;;20.20;99.90;;;;;;5052922;28;20218;-82
2023/09/17 00:56:55;;;;;;;14.70;13.17;;;20.30;99.90;;;;;;5035143;28;20174;-83
2023/09/17 00:59:21;;;;;;;14.47;12.93;;;20.30;99.90;;;;;;5035284;28;20185;-82
2023/09/17 01:01:47;;;;;;;12.33;11.13;;;20.30;99.90;;;;;;5036454;28;20253;-80
2023/09/17 01:04:14;;;;;;;12.93;11.60;;;20.20;99.90;;;;;;5034210;28;20629;-83
2023/09/17 01:06:41;;;;;;;13.23;11.93;;;20.20;99.90;;;;;;5033618;28;20169;-80
2023/09/17 01:09:10;;;;;;;13.40;12.00;;;20.30;99.90;;;;;;5034398;28;20172;-79
2023/09/17 01:11:36;;;;;;;10.90;9.00;;;20.30;99.90;;;;;;5033979;28;20173;-81
2023/09/17 01:14:10;;;;;;;10.47;8.23;;;20.10;99.90;;;;;;5032845;28;20208;-83
2023/09/17 01:16:36;;;;;;;10.67;9.10;;;20.10;99.90;;;;;;5033499;28;20261;-83
2023/09/17 01:19:03;;;;;;;10.57;9.47;;;20.10;99.90;;;;;;5034943;28;20166;-83
2023/09/17 01:21:38;;;;;;;9.70;8.70;;;20.20;99.90;;;;;;5037296;28;20628;-80
2023/09/17 01:24:15;;;;;;;9.40;8.50;;;20.10;99.90;;;;;;5040146;28;20239;-80
2023/09/17 01:26:54;;;;;;;9.27;8.27;;;20.10;99.90;;;;;;5040269;28;20183;-82
2023/09/17 01:29:22;;;;;;;9.10;8.10;;;20.00;99.90;;;;;;5040678;28;20181;-81
2023/09/17 01:31:54;;;;;;;10.63;8.30;;;20.10;99.90;;;;;;5040749;28;20691;-82
2023/09/17 01:34:20;;;;;;;8.90;7.50;;;20.10;99.90;;;;;;5041670;28;20196;-82
2023/09/17 01:36:47;;;;;;;8.67;7.77;;;20.00;99.90;;;;;;5041940;28;20183;-81
2023/09/17 01:39:18;;;;;;;8.97;8.07;;;20.10;99.90;;;;;;5046692;28;20185;-82
2023/09/17 01:41:45;;;;;;;9.67;8.67;;;20.00;99.90;;;;;;5043791;28;20183;-80
2023/09/17 01:44:11;;;;;;;8.83;7.37;;;20.00;99.90;;;;;;5042793;28;20231;-81
2023/09/17 01:46:39;;;;;;;9.30;7.60;;;20.00;99.90;;;;;;5044205;28;20178;-80
2023/09/17 01:49:06;;;;;;;8.20;7.20;;;20.00;99.90;;;;;;5044495;28;20180;-81
2023/09/17 01:51:33;;;;;;;8.87;7.67;;;20.00;99.90;;;;;;5037449;28;20614;-81
2023/09/17 01:53:59;;;;;;;9.93;8.00;;;20.10;99.90;;;;;;5038305;28;20234;-83
2023/09/17 01:56:26;;;;;;;9.67;8.67;;;20.10;99.90;;;;;;5037650;28;20237;-83
2023/09/17 01:58:52;;;;;;;9.50;8.53;;;20.00;99.90;;;;;;5035829;28;20204;-83
2023/09/17 02:01:18;;;;;;;9.07;8.07;;;20.00;99.90;;;;;;5037283;28;20641;-83
2023/09/17 02:03:43;;;;;;;10.83;8.50;;;20.00;99.90;;;;;;5039049;28;20648;-81
2023/09/17 02:06:10;;;;;;;10.80;9.07;;;20.00;99.90;;;;;;5038060;28;20185;-82
2023/09/17 02:08:36;;;;;;;10.67;9.00;;;20.10;99.90;;;;;;5038342;28;20170;-83
2023/09/17 02:11:04;;;;;;;10.03;8.97;;;20.00;99.90;;;;;;5036482;28;20176;-82
2023/09/17 02:13:30;;;;;;;11.03;9.43;;;20.00;99.90;;;;;;5038741;28;20224;-81
2023/09/17 02:15:56;;;;;;;11.13;9.53;;;20.00;99.90;;;;;;5038782;28;20238;-81
2023/09/17 02:18:24;;;;;;;10.97;9.37;;;20.10;99.90;;;;;;5037354;28;20208;-81
2023/09/17 02:20:50;;;;;;;10.23;9.23;;;20.10;99.90;;;;;;5038195;28;20648;-83
2023/09/17 02:23:17;;;;;;;10.57;9.47;;;20.10;99.90;;;;;;5038214;28;20170;-82
2023/09/17 02:25:43;;;;;;;10.27;9.33;;;20.20;99.90;;;;;;5035413;28;20178;-83
2023/09/17 02:28:09;;;;;;;9.87;8.87;;;20.20;99.90;;;;;;5025051;28;20248;-82
2023/09/17 02:30:35;;;;;;;12.93;10.03;;;20.20;99.90;;;;;;5018472;28;20603;-83
2023/09/17 02:33:03;;;;;;;13.37;10.60;;;20.20;99.90;;;;;;5016332;28;20194;-82
2023/09/17 02:35:29;;;;;;;11.50;10.30;;;20.30;99.90;;;;;;5016746;28;20184;-83
2023/09/17 02:37:55;;;;;;;11.53;9.93;;;20.30;99.90;;;;;;5025738;28;20248;-81
2023/09/17 02:40:23;;;;;;;13.90;10.43;;;20.50;99.90;;;;;;5039660;28;20155;-80
2023/09/17 02:42:49;;;;;;;11.43;9.40;;;20.40;99.90;;;;;;5036805;28;20187;-83
2023/09/17 02:45:16;;;;;;;11.20;9.87;;;20.40;99.90;;;;;;5036611;28;20227;-80
2023/09/17 02:47:42;;;;;;;10.27;9.17;;;20.40;99.90;;;;;;5032761;28;20166;-83
2023/09/17 02:50:13;;;;;;;10.40;9.30;;;20.40;99.90;;;;;;5026209;28;20179;-83
2023/09/17 02:52:40;;;;;;;11.20;10.10;;;20.40;99.90;;;;;;5024474;28;20523;-83
2023/09/17 02:55:09;;;;;;;11.93;10.37;;;20.50;99.90;;;;;;5038025;28;20179;-82
2023/09/17 02:57:36;;;;;;;12.23;10.93;;;20.50;99.90;;;;;;5037920;28;20211;-83
2023/09/17 03:00:04;;;;;;;11.70;10.13;;;20.60;99.90;;;;;;5037612;28;20199;-82
2023/09/17 03:02:30;;;;;;;12.47;11.17;;;20.60;99.90;;;;;;5039283;28;20167;-82
2023/09/17 03:04:58;;;;;;;12.90;11.70;;;20.70;99.90;;;;;;5035990;28;20175;-81
2023/09/17 03:07:24;;;;;;;12.57;10.77;;;20.70;99.90;;;;;;5037462;28;20173;-82
2023/09/17 03:09:50;;;;;;;12.43;11.13;;;20.80;99.90;;;;;;5038275;28;20640;-83
2023/09/17 03:12:17;;;;;;;12.83;11.47;;;20.80;99.90;;;;;;5039096;28;20212;-82
2023/09/17 03:14:43;;;;;;;12.03;10.73;;;20.90;99.90;;;;;;5035925;28;20221;-82
2023/09/17 03:17:10;;;;;;;12.30;10.97;;;20.90;99.90;;;;;;5038425;28;20170;-83
2023/09/17 03:19:35;;;;;;;13.47;12.07;;;21.00;99.90;;;;;;5036800;28;20273;-83
2023/09/17 03:22:03;;;;;;;12.13;10.80;;;21.10;99.90;;;;;;5037363;28;20205;-83
2023/09/17 03:24:29;;;;;;;14.27;11.90;;;21.20;99.90;;;;;;5038588;28;20584;-83
2023/09/17 03:26:54;;;;;;;13.10;11.67;;;21.20;99.90;;;;;;5037869;28;20651;-83
2023/09/17 03:29:20;;;;;;;15.20;11.77;;;20.90;99.90;;;;;;5037321;28;20661;-83
2023/09/17 03:31:48;;;;;;;12.43;11.13;;;20.80;99.90;;;;;;5038554;28;20165;-83
2023/09/17 03:34:14;;;;;;;13.90;11.73;;;20.90;99.90;;;;;;5037408;28;20219;-83
2023/09/17 03:36:39;;;;;;;14.13;11.57;;;21.00;99.90;;;;;;5037036;28;20179;-83
2023/09/17 03:39:08;;;;;;;13.27;11.97;;;21.10;99.90;;;;;;5037898;28;20228;-82
2023/09/17 03:41:34;;;;;;;12.93;11.23;;;21.00;99.90;;;;;;5036321;28;20220;-82
2023/09/17 03:44:01;;;;;;;13.20;11.23;;;21.00;99.90;;;;;;5036047;28;20177;-82
2023/09/17 03:46:27;;;;;;;13.43;10.90;;;21.10;99.90;;;;;;5035497;28;20170;-83
2023/09/17 03:48:53;;;;;;;13.50;12.10;;;21.20;99.90;;;;;;5035543;28;20300;-81
2023/09/17 03:51:18;;;;;;;12.77;11.23;;;21.40;99.90;;;;;;5041764;28;20185;-82
2023/09/17 03:53:45;;;;;;;13.43;12.03;;;21.50;99.90;;;;;;5058076;28;20263;-83
2023/09/17 03:56:12;;;;;;;13.90;12.03;;;21.50;99.90;;;;;;5046385;28;20179;-82
2023/09/17 03:58:37;;;;;;;15.50;12.67;;;21.40;99.90;;;;;;5042774;28;20184;-82
2023/09/17 04:01:06;;;;;;;15.63;13.70;;;21.50;99.90;;;;;;5037601;28;20207;-81
2023/09/17 04:03:32;;;;;;;14.10;12.67;;;21.40;99.90;;;;;;5036499;28;20626;-83
2023/09/17 04:05:58;;;;;;;14.30;12.80;;;21.50;99.90;;;;;;5036279;28;20280;-82
2023/09/17 04:08:24;;;;;;;13.30;11.90;;;21.50;99.90;;;;;;5036836;28;20645;-82
2023/09/17 04:10:54;;;;;;;14.33;12.83;;;21.50;99.90;;;;;;5035074;28;20176;-82
2023/09/17 04:13:20;;;;;;;12.80;11.47;;;21.50;99.90;;;;;;5035429;28;20204;-83
2023/09/17 04:15:46;;;;;;;14.40;12.90;;;21.60;99.90;;;;;;5052466;28;20189;-82
2023/09/17 04:18:11;;;;;;;13.77;12.40;;;21.70;99.90;;;;;;5044164;28;20171;-82
2023/09/17 04:20:37;;;;;;;13.00;11.60;;;21.70;99.90;;;;;;5028452;28;20212;-82
2023/09/17 04:23:04;;;;;;;14.27;12.77;;;21.70;99.90;;;;;;5021613;28;20181;-82
2023/09/17 04:25:40;;;;;;;15.47;13.80;;;21.80;99.90;;;;;;5018455;28;20162;-81
2023/09/17 04:28:06;;;;;;;14.47;12.97;;;21.70;99.90;;;;;;5020114;28;20175;-82
2023/09/17 04:30:31;;;;;;;14.57;13.07;;;21.60;99.90;;;;;;5037154;28;20200;-80
2023/09/17 04:32:57;;;;;;;15.17;13.60;;;21.70;99.90;;;;;;5036898;28;20538;-82
2023/09/17 04:35:23;;;;;;;14.13;12.60;;;21.80;99.90;;;;;;5035396;28;20188;-83
2023/09/17 04:37:50;;;;;;;14.57;13.07;;;21.80;99.90;;;;;;5035499;28;20190;-83
2023/09/17 04:40:17;;;;;;;17.53;15.47;;;21.60;99.90;;;;;;5035588;28;20181;-82
2023/09/17 04:42:45;;;;;;;24.93;22.33;;;21.40;99.90;;;;;;5036084;28;20161;-80
2023/09/17 04:45:16;;;;;;;25.33;22.83;;;21.40;99.90;;;;;;5029286;28;20193;-82
2023/09/17 04:47:41;;;;;;;29.47;26.77;;;21.40;99.90;;;;;;5016125;28;20699;-82
2023/09/17 04:50:08;;;;;;;28.60;25.80;;;21.20;99.90;;;;;;5014332;28;20181;-80
2023/09/17 04:52:37;;;;;;;29.83;26.93;;;21.00;99.90;;;;;;5015699;28;20201;-83
2023/09/17 04:55:04;;;;;;;29.70;27.00;;;21.00;99.90;;;;;;5013205;28;20300;-83
2023/09/17 04:57:31;;;;;;;31.20;28.20;;;21.00;99.90;;;;;;5017014;28;20244;-81
2023/09/17 04:59:57;;;;;;;32.23;28.97;;;20.90;99.90;;;;;;5032423;28;20196;-82
2023/09/17 05:02:23;;;;;;;32.47;29.27;;;20.90;99.90;;;;;;5017458;28;20170;-79
2023/09/17 05:04:49;;;;;;;33.70;30.37;;;20.80;99.90;;;;;;5020381;28;20180;-81
2023/09/17 05:07:17;;;;;;;34.80;31.40;;;20.80;99.90;;;;;;5024075;28;20208;-82
2023/09/17 05:09:43;;;;;;;33.27;30.00;;;20.90;99.90;;;;;;5025885;28;20335;-82
2023/09/17 05:12:09;;;;;;;32.30;29.20;;;20.70;99.90;;;;;;5016169;28;20263;-82
2023/09/17 05:14:35;;;;;;;31.87;28.87;;;20.80;99.90;;;;;;5014449;28;20213;-82
2023/09/17 05:17:00;;;;;;;31.50;28.40;;;21.00;99.90;;;;;;5016070;28;20217;-82
2023/09/17 05:19:26;;;;;;;33.20;30.03;;;21.10;99.90;;;;;;5014150;28;20709;-82
2023/09/17 05:21:52;;;;;;;29.43;26.47;;;21.20;99.90;;;;;;5014442;28;20200;-81
2023/09/17 05:24:17;;;;;;;22.20;19.80;;;21.30;99.90;;;;;;5031505;28;20223;-82
2023/09/17 05:26:43;;;;;;;18.47;16.60;;;21.20;99.90;;;;;;5013694;28;20684;-82
2023/09/17 05:29:11;;;;;;;18.30;16.40;;;21.00;99.90;;;;;;5023057;28;20239;-82
2023/09/17 05:31:37;;;;;;;17.23;15.53;;;21.00;99.90;;;;;;5035219;28;20172;-82
2023/09/17 05:34:03;;;;;;;17.03;15.30;;;20.90;99.90;;;;;;5034405;28;20574;-83
2023/09/17 05:36:30;;;;;;;18.47;15.00;;;20.70;99.90;;;;;;5035263;28;20656;-83
2023/09/17 05:38:57;;;;;;;16.90;15.20;;;20.90;99.90;;;;;;5034182;28;20188;-82
2023/09/17 05:41:24;;;;;;;18.97;15.13;;;21.00;99.90;;;;;;5034000;28;20191;-82
2023/09/17 05:43:50;;;;;;;15.93;14.33;;;21.10;99.90;;;;;;5035169;28;20168;-83
2023/09/17 05:46:15;;;;;;;16.87;15.20;;;21.00;99.90;;;;;;5034287;28;20177;-83
2023/09/17 05:48:42;;;;;;;16.17;13.50;;;21.10;99.90;;;;;;5035131;28;20263;-82
2023/09/17 05:51:08;;;;;;;15.17;13.67;;;21.10;99.90;;;;;;5034979;28;20176;-82
2023/09/17 05:53:35;;;;;;;16.40;14.27;;;20.90;99.90;;;;;;5034463;28;20618;-82
2023/09/17 05:56:02;;;;;;;15.23;13.63;;;20.80;99.90;;;;;;5034499;28;20195;-83
2023/09/17 05:58:29;;;;;;;15.30;13.73;;;20.90;99.90;;;;;;5032228;28;20184;-83
2023/09/17 06:00:55;;;;;;;15.57;14.00;;;21.00;99.90;;;;;;5015129;28;20596;-83
2023/09/17 06:03:23;;;;;;;15.30;13.70;;;20.90;99.90;;;;;;5014241;28;20187;-83
2023/09/17 06:05:49;;;;;;;15.40;13.80;;;20.90;99.90;;;;;;5017435;28;20682;-84
2023/09/17 06:08:15;;;;;;;14.97;13.57;;;21.00;99.90;;;;;;5019085;28;20203;-83
2023/09/17 06:10:40;;;;;;;16.70;14.90;;;20.80;99.90;;;;;;5018445;28;20243;-83
2023/09/17 06:13:07;;;;;;;18.47;16.57;;;20.90;99.90;;;;;;5018184;28;20179;-83
2023/09/17 06:15:33;;;;;;;17.73;15.83;;;20.70;99.90;;;;;;5018997;28;20690;-83
2023/09/17 06:17:59;;;;;;;17.63;15.73;;;20.70;99.90;;;;;;5020223;28;20175;-82
2023/09/17 06:20:24;;;;;;;17.83;16.03;;;20.60;99.90;;;;;;5017462;28;20626;-82
2023/09/17 06:22:50;;;;;;;18.83;16.93;;;20.40;99.90;;;;;;5021700;28;20172;-82
2023/09/17 06:25:16;;;;;;;18.77;16.13;;;20.40;99.90;;;;;;5023275;28;20183;-82
2023/09/17 06:27:41;;;;;;;16.80;15.07;;;20.40;99.90;;;;;;5025155;28;20266;-83
2023/09/17 06:30:08;;;;;;;16.47;14.63;;;20.30;99.90;;;;;;5044668;28;20228;-83
2023/09/17 06:32:34;;;;;;;18.07;16.27;;;20.40;99.90;;;;;;5056742;28;20200;-83
2023/09/17 06:35:00;;;;;;;16.90;15.10;;;20.40;99.90;;;;;;5053285;28;20214;-80
2023/09/17 06:37:28;;;;;;;17.07;14.67;;;20.60;99.90;;;;;;5050145;28;20175;-83
2023/09/17 06:39:55;;;;;;;17.60;15.90;;;20.70;99.90;;;;;;5045865;28;20294;-82
2023/09/17 06:42:23;;;;;;;18.10;15.73;;;20.70;99.90;;;;;;5042490;28;20170;-82
2023/09/17 06:44:52;;;;;;;16.17;14.67;;;20.80;99.90;;;;;;5039360;28;20233;-83
2023/09/17 06:47:19;;;;;;;16.37;14.67;;;20.80;99.90;;;;;;5038311;28;20226;-84
2023/09/17 06:49:47;;;;;;;18.17;15.30;;;20.80;99.90;;;;;;5038370;28;20205;-83
2023/09/17 06:52:12;;;;;;;16.73;15.03;;;20.80;99.90;;;;;;5038949;28;20569;-82
2023/09/17 06:54:38;;;;;;;19.57;16.67;;;20.80;99.90;;;;;;5027480;28;20219;-82
2023/09/17 06:57:04;;;;;;;20.83;18.30;;;20.80;99.90;;;;;;5017092;28;20652;-84
2023/09/17 06:59:29;;;;;;;18.60;16.60;;;20.60;99.90;;;;;;5016095;28;20286;-83
2023/09/17 07:01:55;;;;;;;18.67;16.63;;;20.50;99.90;;;;;;5017143;28;20212;-82
2023/09/17 07:04:21;;;;;;;19.80;17.73;;;20.40;99.90;;;;;;5017011;28;20186;-81
2023/09/17 07:06:47;;;;;;;21.27;17.37;;;20.30;99.90;;;;;;5016753;28;20221;-81
2023/09/17 07:09:13;;;;;;;18.97;16.73;;;20.30;99.90;;;;;;5018727;28;20225;-82
2023/09/17 07:11:39;;;;;;;17.23;15.40;;;20.30;99.90;;;;;;5036723;28;20270;-81
2023/09/17 07:14:09;;;;;;;17.93;16.13;;;20.40;99.90;;;;;;5034397;28;20735;-84
2023/09/17 07:16:36;;;;;;;18.47;16.03;;;20.50;99.90;;;;;;5053897;28;20220;-83
2023/09/17 07:19:04;;;;;;;19.03;16.13;;;20.50;99.90;;;;;;5050112;28;20171;-84
2023/09/17 07:21:31;;;;;;;17.37;15.53;;;20.50;99.90;;;;;;5038669;28;20175;-82
2023/09/17 07:23:57;;;;;;;17.50;14.50;;;20.60;99.90;;;;;;5038051;28;20168;-84
2023/09/17 07:26:23;;;;;;;18.90;15.77;;;20.60;99.90;;;;;;5038963;28;20247;-83
2023/09/17 07:28:49;;;;;;;16.17;14.57;;;20.50;99.90;;;;;;5036943;28;20719;-84
2023/09/17 07:31:16;;;;;;;15.97;14.43;;;20.50;99.90;;;;;;5037748;28;20265;-86
2023/09/17 07:33:42;;;;;;;15.73;14.03;;;20.60;99.90;;;;;;5036523;28;20335;-84
2023/09/17 07:36:09;;;;;;;14.37;12.87;;;20.80;99.90;;;;;;5037061;28;20670;-85
2023/09/17 07:38:35;;;;;;;16.13;14.53;;;20.80;99.90;;;;;;5044514;28;20184;-79
2023/09/17 07:41:02;;;;;;;16.30;14.63;;;20.80;99.90;;;;;;5056449;28;20211;-80
2023/09/17 07:43:28;;;;;;;15.73;14.23;;;20.80;99.90;;;;;;5048610;28;20208;-84
2023/09/17 07:45:54;;;;;;;15.63;14.03;;;20.90;99.90;;;;;;5038090;28;20196;-87
2023/09/17 07:48:24;;;;;;;15.57;13.97;;;21.00;99.90;;;;;;5036569;28;20170;-84
2023/09/17 07:50:56;;;;;;;15.17;13.60;;;21.00;99.90;;;;;;5037871;28;20647;-86
2023/09/17 07:53:23;;;;;;;15.57;13.80;;;20.90;99.90;;;;;;5036635;28;20197;-81
2023/09/17 07:55:48;;;;;;;15.17;13.57;;;20.80;99.90;;;;;;5036399;28;20222;-86
2023/09/17 07:58:14;;;;;;;16.40;14.70;;;20.80;99.90;;;;;;5036932;28;20180;-86
2023/09/17 08:00:40;;;;;;;15.40;13.90;;;20.80;99.90;;;;;;5036640;28;20188;-85
2023/09/17 08:03:05;;;;;;;14.70;13.20;;;20.80;99.90;;;;;;5037713;28;20239;-85
2023/09/17 08:05:33;;;;;;;15.53;13.83;;;20.70;99.90;;;;;;5037920;28;20170;-85
2023/09/17 08:07:59;;;;;;;14.73;13.23;;;20.80;99.90;;;;;;5037651;28;20164;-86
2023/09/17 08:10:27;;;;;;;14.40;13.00;;;20.80;99.90;;;;;;5038080;28;20181;-87
2023/09/17 08:12:54;;;;;;;13.93;12.50;;;20.70;99.90;;;;;;5035061;28;20170;-85
2023/09/17 08:15:20;;;;;;;13.97;12.50;;;20.70;99.90;;;;;;5036260;28;20962;-86
2023/09/17 08:17:45;;;;;;;15.53;12.83;;;20.80;99.90;;;;;;5036382;28;20214;-84
2023/09/17 08:20:11;;;;;;;12.33;10.50;;;20.80;99.90;;;;;;5035272;28;20222;-86
2023/09/17 08:22:37;;;;;;;13.63;12.23;;;20.80;99.90;;;;;;5039322;28;20191;-86
2023/09/17 08:25:03;;;;;;;14.53;12.83;;;20.70;99.90;;;;;;5036886;28;20185;-84
2023/09/17 08:27:29;;;;;;;15.40;13.37;;;20.60;99.90;;;;;;5038872;28;20222;-86
2023/09/17 08:29:54;;;;;;;14.87;13.37;;;20.70;99.90;;;;;;5033530;28;20184;-84
2023/09/17 08:32:20;;;;;;;12.90;11.50;;;20.70;99.90;;;;;;5035932;28;20636;-81
2023/09/17 08:34:46;;;;;;;15.07;13.53;;;20.80;99.90;;;;;;5035134;28;20205;-81
2023/09/17 08:37:11;;;;;;;14.87;13.37;;;20.70;99.90;;;;;;5033764;28;20429;-83
2023/09/17 08:39:42;;;;;;;13.83;12.30;;;20.60;99.90;;;;;;5029318;28;20287;-84
2023/09/17 08:42:08;;;;;;;15.10;13.60;;;20.60;99.90;;;;;;5028328;28;20195;-83
2023/09/17 08:44:37;;;;;;;15.17;13.57;;;20.60;99.90;;;;;;5034357;28;20185;-83
2023/09/17 08:47:03;;;;;;;16.23;14.40;;;20.70;99.90;;;;;;5032984;28;20166;-82
2023/09/17 08:49:29;;;;;;;13.50;12.10;;;20.80;99.90;;;;;;5033441;28;20184;-81
2023/09/17 08:51:59;;;;;;;13.87;12.47;;;20.80;99.90;;;;;;5032810;28;20653;-82
2023/09/17 08:54:37;;;;;;;14.47;12.77;;;20.90;99.90;;;;;;5026077;28;20279;-84
2023/09/17 08:57:04;;;;;;;12.90;11.20;;;21.00;99.90;;;;;;5029137;28;20192;-83
2023/09/17 08:59:33;;;;;;;12.90;10.80;;;21.20;99.90;;;;;;5027714;28;20186;-81
2023/09/17 09:02:03;;;;;;;14.03;11.73;;;21.40;99.90;;;;;;5014194;28;20491;-81
2023/09/17 09:04:30;;;;;;;13.20;11.80;;;21.60;99.90;;;;;;5031591;28;20403;-83
2023/09/17 09:06:56;;;;;;;12.47;10.33;;;21.70;98.80;;;;;;5035034;28;20654;-81
2023/09/17 09:09:23;;;;;;;11.93;10.73;;;21.80;99.40;;;;;;5032912;28;20187;-82
2023/09/17 09:11:49;;;;;;;11.93;10.60;;;21.90;99.40;;;;;;5033053;28;20592;-83
2023/09/17 09:14:16;;;;;;;11.57;9.57;;;22.00;99.40;;;;;;5036377;28;20206;-81
2023/09/17 09:16:44;;;;;;;14.87;10.70;;;22.20;98.00;;;;;;5040783;28;20169;-80
2023/09/17 09:19:10;;;;;;;12.87;11.43;;;22.40;96.00;;;;;;5037092;28;20186;-83
2023/09/17 09:21:36;;;;;;;12.30;11.10;;;22.40;91.10;;;;;;5030775;28;20180;-81
2023/09/17 09:24:02;;;;;;;13.93;10.50;;;22.40;90.20;;;;;;5034107;28;20222;-81
2023/09/17 09:26:36;;;;;;;11.97;9.80;;;22.40;91.30;;;;;;5020583;28;20203;-77
2023/09/17 09:29:03;;;;;;;12.10;9.77;;;22.40;90.20;;;;;;5033798;28;20176;-83
2023/09/17 09:31:30;;;;;;;11.47;10.37;;;22.40;91.10;;;;;;5031527;28;20543;-80
2023/09/17 09:34:00;;;;;;;12.20;9.77;;;22.30;90.70;;;;;;5031349;28;20212;-80
2023/09/17 09:36:27;;;;;;;13.10;9.77;;;22.40;92.10;;;;;;5032391;28;20759;-83
2023/09/17 09:38:55;;;;;;;13.07;10.57;;;22.50;92.30;;;;;;5032078;28;20200;-80
2023/09/17 09:41:21;;;;;;;13.93;10.50;;;22.50;92.90;;;;;;5032588;28;20177;-82
2023/09/17 09:43:48;;;;;;;13.77;11.60;;;22.50;94.10;;;;;;5027970;28;20179;-82
2023/09/17 09:46:14;;;;;;;14.30;11.37;;;22.40;94.50;;;;;;5030020;28;20182;-82
2023/09/17 09:48:41;;;;;;;14.70;11.87;;;22.40;95.30;;;;;;5025715;28;20218;-81
2023/09/17 09:51:07;;;;;;;12.87;10.83;;;22.40;95.30;;;;;;5034547;28;20219;-81
2023/09/17 09:53:33;;;;;;;13.87;11.30;;;22.40;95.30;;;;;;5021133;28;20693;-81
2023/09/17 09:55:59;;;;;;;14.77;12.07;;;22.50;94.90;;;;;;5029333;28;20181;-79
2023/09/17 09:58:25;;;;;;;16.93;12.40;;;22.70;92.90;;;;;;5039573;28;20173;-81
2023/09/17 10:00:51;;;;;;;15.27;11.87;;;22.80;90.10;;;;;;5035856;28;20212;-82
2023/09/17 10:03:21;;;;;;;15.20;12.67;;;22.80;89.40;;;;;;5037597;28;20633;-83
2023/09/17 10:05:46;;;;;;;17.47;13.20;;;23.00;83.50;;;;;;5033660;28;20512;-81
2023/09/17 10:08:15;;;;;;;15.37;13.07;;;22.90;82.80;;;;;;5034989;28;20169;-82
2023/09/17 10:10:42;;;;;;;13.67;12.17;;;22.90;82.40;;;;;;5038880;28;20173;-83
2023/09/17 10:13:12;;;;;;;17.10;11.97;;;22.90;83.40;;;;;;5038260;28;20611;-83
2023/09/17 10:15:41;;;;;;;16.03;13.13;;;23.00;85.90;;;;;;5036635;28;20656;-81
2023/09/17 10:18:12;;;;;;;19.07;13.17;;;23.10;79.20;;;;;;5035335;28;20177;-83
2023/09/17 10:20:42;;;;;;;15.63;12.73;;;23.10;75.80;;;;;;5036639;28;20172;-82
2023/09/17 10:23:10;;;;;;;12.50;10.87;;;23.20;79.70;;;;;;5035128;28;20173;-83
2023/09/17 10:25:39;;;;;;;13.03;10.90;;;23.20;76.00;;;;;;5036208;28;20232;-83
2023/09/17 10:28:07;;;;;;;14.90;10.63;;;23.20;73.20;;;;;;5036574;28;20173;-81
2023/09/17 10:30:33;;;;;;;11.27;9.90;;;23.30;68.80;;;;;;5036855;28;20180;-82
2023/09/17 10:33:00;;;;;;;9.77;8.53;;;23.40;66.50;;;;;;5037045;28;20191;-82
2023/09/17 10:35:28;;;;;;;11.23;8.60;;;23.60;60.80;;;;;;5035907;28;20177;-82
2023/09/17 10:37:55;;;;;;;10.63;8.87;;;23.60;58.40;;;;;;5049594;28;20197;-83
2023/09/17 10:40:21;;;;;;;9.63;8.63;;;23.70;57.70;;;;;;5047668;28;20184;-83
2023/09/17 10:42:50;;;;;;;10.80;8.90;;;23.70;53.50;;;;;;5037416;28;20162;-82
2023/09/17 10:45:17;;;;;;;10.53;9.40;;;23.40;60.00;;;;;;5037580;28;20150;-83
2023/09/17 10:47:45;;;;;;;11.17;9.77;;;23.30;63.60;;;;;;5036945;28;20627;-80
2023/09/17 10:50:13;;;;;;;9.93;8.63;;;23.60;61.30;;;;;;5037985;28;20178;-82
2023/09/17 10:52:39;;;;;;;9.57;8.57;;;23.80;53.20;;;;;;5036469;28;20228;-82
2023/09/17 10:55:07;;;;;;;11.73;9.60;;;24.00;49.90;;;;;;5035130;28;20217;-82
2023/09/17 10:57:40;;;;;;;12.33;9.70;;;24.00;50.90;;;;;;5036136;28;20169;-83
2023/09/17 11:00:14;;;;;;;10.77;9.40;;;24.00;52.10;;;;;;5038205;28;20181;-80
2023/09/17 11:02:45;;;;;;;10.27;8.53;;;24.10;47.90;;;;;;5051404;28;20173;-81
2023/09/17 11:05:14;;;;;;;10.90;8.87;;;24.20;48.10;;;;;;5038108;28;20180;-83
2023/09/17 11:07:41;;;;;;;11.07;9.20;;;24.30;41.60;;;;;;5036466;28;20166;-81
2023/09/17 11:10:10;;;;;;;9.80;8.73;;;24.20;42.90;;;;;;5036008;28;20170;-82
2023/09/17 11:12:39;;;;;;;12.30;10.73;;;24.30;46.70;;;;;;5030077;28;20170;-82
2023/09/17 11:15:07;;;;;;;12.13;8.30;;;24.30;46.70;;;;;;5017829;28;20260;-82
2023/09/17 11:17:34;;;;;;;9.07;8.17;;;24.20;47.80;;;;;;5017038;28;20702;-83
2023/09/17 11:20:00;;;;;;;10.60;9.50;;;24.20;49.30;;;;;;5016559;28;20218;-81
2023/09/17 11:22:34;;;;;;;10.20;9.07;;;24.10;50.70;;;;;;5016073;28;20182;-81
2023/09/17 11:25:03;;;;;;;11.43;9.10;;;24.30;45.00;;;;;;5016475;28;20173;-83
2023/09/17 11:27:49;;;;;;;11.20;9.40;;;24.20;49.00;;;;;;5015989;28;20174;-81
2023/09/17 11:30:23;;;;;;;11.47;9.37;;;24.10;51.90;;;;;;5014719;28;20241;-82
2023/09/17 11:32:54;;;;;;;10.10;9.10;;;24.30;51.50;;;;;;5015642;28;20261;-80
2023/09/17 11:35:24;;;;;;;10.37;9.10;;;24.50;48.20;;;;;;5016276;28;20198;-81
2023/09/17 11:37:51;;;;;;;10.20;8.77;;;24.70;44.00;;;;;;5016691;28;20174;-81
2023/09/17 11:40:20;;;;;;;9.87;8.87;;;24.80;43.20;;;;;;5017662;28;20190;-80
2023/09/17 11:42:46;;;;;;;10.30;8.97;;;24.90;40.00;;;;;;5015446;28;20198;-82
2023/09/17 11:45:14;;;;;;;10.53;8.87;;;24.90;38.80;;;;;;5017803;28;20217;-81
2023/09/17 11:47:40;;;;;;;8.87;7.90;;;25.00;38.40;;;;;;5015634;28;20686;-81
2023/09/17 11:50:08;;;;;;;9.40;8.03;;;25.20;1.00;;;;;;5017872;28;20165;-81
2023/09/17 11:52:35;;;;;;;9.00;8.10;;;25.20;1.00;;;;;;5017140;28;20166;-80
2023/09/17 11:55:07;;;;;;;10.03;8.00;;;25.20;1.00;;;;;;5015707;28;20393;-81
2023/09/17 11:57:34;;;;;;;8.63;7.77;;;25.30;1.00;;;;;;5017764;28;20166;-82
2023/09/17 12:00:00;;;;;;;9.07;8.13;;;25.20;1.00;;;;;;5019127;28;20665;-82
2023/09/17 12:02:27;;;;;;;8.50;7.60;;;25.20;1.00;;;;;;5018759;28;20174;-82
2023/09/17 12:04:54;;;;;;;9.23;8.23;;;25.20;1.00;;;;;;5016121;28;20178;-81
2023/09/17 12:07:21;;;;;;;9.07;8.20;;;25.40;1.00;;;;;;5014814;28;20182;-83
2023/09/17 12:10:04;;;;;;;10.30;8.90;;;25.40;1.00;;;;;;5014526;28;20170;-82
2023/09/17 12:12:35;;;;;;;7.87;7.10;;;25.50;1.00;;;;;;5013830;28;20600;-81
2023/09/17 12:15:04;;;;;;;8.47;7.50;;;25.60;1.00;;;;;;5015538;28;20205;-82
2023/09/17 12:17:33;;;;;;;7.70;6.87;;;25.60;1.00;;;;;;5015663;28;20316;-81
2023/09/17 12:20:33;;;;;;;8.57;7.77;;;25.60;1.00;;;;;;5015899;28;20186;-81
2023/09/17 12:22:56;;;;;;;8.63;7.73;;;25.60;1.00;;;;;;5018661;28;20162;-81
2023/09/17 12:25:23;;;;;;;9.43;7.30;;;25.50;1.00;;;;;;5020213;28;20236;-81
2023/09/17 12:27:51;;;;;;;7.00;6.37;;;25.50;1.00;;;;;;5018626;28;20180;-82
2023/09/17 12:30:18;;;;;;;6.17;5.57;;;25.60;1.00;;;;;;5016871;28;20180;-82